CheckWX is a tool to help pilots better visualize weather data.  It is not intended as a substitute for an official pre-flight weather briefing.

04:14:14 UTC

FYLZ METAR
Luderitz Airport
Luderitz, Namibia
Current

1 hour ago

FYLZ 180300Z AUTO 19002KT //// // ////// 16/14 Q1012
Observed
Feb-18 @ 03:00 UTC
Wind
  • 190° at 2 KTS
Visibility
Temperature
16°C / 61°F
Dewpoint
14°C / 57°F
Humidity
88%
Altimeter
29.88" Hg
Pressure
1011.92 hPa
Previous

2 hours ago

FYLZ 180200Z AUTO 00000KT //// // ////// 16/14 Q1013
Observed
Feb-18 @ 02:00 UTC
Visibility
Temperature
16°C / 61°F
Dewpoint
14°C / 57°F
Humidity
88%
Altimeter
29.91" Hg
Pressure
1012.92 hPa
Previous

3 hours ago

FYLZ 180100Z AUTO 00000KT //// // ////// 17/14 Q1013
Observed
Feb-18 @ 01:00 UTC
Visibility
Temperature
17°C / 63°F
Dewpoint
14°C / 57°F
Humidity
83%
Altimeter
29.91" Hg
Pressure
1012.92 hPa